Time;durP1;ratioP1;P1;durP2;ratioP2;P2;SDS_P1;SDS_P2;PMS_P1;PMS_P2;Temp;Humidity;BMP_temperature;BMP_pressure;BME280_temperature;BME280_humidity;BME280_pressure;Samples;Min_cycle;Max_cycle;Signal;HPM_P1;HPM_P2
2023/07/28 00:00:27;;;;;;;2.10;1.50;;;16.60;99.90;;;;;;2062961;28;20234;-84
2023/07/28 00:01:28;;;;;;;2.53;1.63;;;16.60;99.90;;;;;;2074707;28;20229;-83
2023/07/28 00:02:28;;;;;;;1.63;1.53;;;16.50;99.90;;;;;;2070024;28;20230;-84
2023/07/28 00:03:29;;;;;;;1.67;1.57;;;16.40;99.90;;;;;;2056874;28;20231;-83
2023/07/28 00:04:30;;;;;;;2.90;1.87;;;16.40;99.90;;;;;;2056311;28;20238;-84
2023/07/28 00:05:30;;;;;;;1.73;1.63;;;16.30;99.90;;;;;;2062642;28;20230;-84
2023/07/28 00:06:31;;;;;;;3.07;1.70;;;16.40;99.90;;;;;;2070049;28;20307;-81
2023/07/28 00:07:35;;;;;;;1.90;1.63;;;16.30;99.90;;;;;;2061989;28;20258;-82
2023/07/28 00:08:35;;;;;;;1.73;1.60;;;16.20;99.90;;;;;;2056929;28;20336;-82
2023/07/28 00:09:36;;;;;;;2.93;2.20;;;16.10;99.90;;;;;;2056448;28;20528;-81
2023/07/28 00:10:42;;;;;;;2.00;1.70;;;16.00;99.90;;;;;;2061453;28;20244;-82
2023/07/28 00:11:43;;;;;;;2.20;1.80;;;15.90;99.90;;;;;;2071253;28;20245;-82
2023/07/28 00:12:44;;;;;;;2.57;1.67;;;15.90;99.90;;;;;;2070781;28;20991;-83
2023/07/28 00:13:45;;;;;;;2.50;2.00;;;15.80;99.90;;;;;;2076990;28;20317;-81
2023/07/28 00:14:45;;;;;;;1.87;1.67;;;15.90;99.90;;;;;;2077603;28;20225;-82
2023/07/28 00:15:46;;;;;;;1.83;1.70;;;15.80;99.90;;;;;;2075258;28;20238;-82
2023/07/28 00:16:47;;;;;;;2.03;1.67;;;15.70;99.90;;;;;;2084037;28;20245;-81
2023/07/28 00:17:47;;;;;;;2.30;2.10;;;15.80;99.90;;;;;;2077422;28;20259;-84
2023/07/28 00:18:48;;;;;;;1.67;1.50;;;15.90;99.90;;;;;;2064888;28;20230;-83
2023/07/28 00:19:49;;;;;;;2.43;1.60;;;15.80;99.90;;;;;;2056590;28;20759;-84
2023/07/28 00:20:49;;;;;;;1.90;1.70;;;15.70;99.90;;;;;;2056064;28;20238;-83
2023/07/28 00:21:51;;;;;;;2.47;2.10;;;15.70;99.90;;;;;;2070393;28;21073;-84
2023/07/28 00:22:52;;;;;;;2.37;2.17;;;15.60;99.90;;;;;;2078482;28;20237;-84
2023/07/28 00:23:53;;;;;;;2.67;2.00;;;15.60;99.90;;;;;;2054010;28;20477;-83
2023/07/28 00:24:53;;;;;;;2.17;1.98;;;15.60;99.90;;;;;;2050646;28;20232;-83
2023/07/28 00:25:54;;;;;;;2.43;1.90;;;15.60;99.90;;;;;;2064648;28;20294;-84
2023/07/28 00:26:55;;;;;;;3.20;2.10;;;15.60;99.90;;;;;;2064761;28;20669;-85
2023/07/28 00:27:55;;;;;;;2.03;1.87;;;15.70;99.90;;;;;;2064430;28;20312;-84
2023/07/28 00:28:57;;;;;;;2.30;2.10;;;15.40;99.90;;;;;;2064032;28;20744;-84
2023/07/28 00:29:58;;;;;;;3.37;2.03;;;15.40;99.90;;;;;;2062608;28;20228;-82
2023/07/28 00:30:59;;;;;;;3.53;2.10;;;15.40;99.90;;;;;;2064606;28;20436;-82
2023/07/28 00:31:59;;;;;;;3.77;2.10;;;15.20;99.90;;;;;;2063832;28;20248;-83
2023/07/28 00:33:00;;;;;;;2.37;1.90;;;15.20;99.90;;;;;;2072584;28;20593;-84
2023/07/28 00:34:03;;;;;;;2.83;2.30;;;15.20;99.90;;;;;;2077225;28;20189;-83
2023/07/28 00:35:07;;;;;;;3.80;2.10;;;15.10;99.90;;;;;;2084839;28;20191;-82
2023/07/28 00:36:08;;;;;;;2.83;2.23;;;15.20;99.90;;;;;;2077200;28;20565;-83
2023/07/28 00:37:09;;;;;;;2.60;2.40;;;15.20;99.90;;;;;;2081715;28;20458;-85
2023/07/28 00:38:10;;;;;;;2.40;2.20;;;15.30;99.90;;;;;;2083066;28;20190;-81
2023/07/28 00:39:10;;;;;;;3.43;2.07;;;15.30;99.90;;;;;;2069538;28;20440;-84
2023/07/28 00:40:12;;;;;;;2.23;2.00;;;15.40;99.90;;;;;;2066785;28;20222;-84
2023/07/28 00:41:13;;;;;;;2.10;1.90;;;15.40;99.90;;;;;;2082209;28;20209;-85
2023/07/28 00:42:14;;;;;;;2.37;2.17;;;15.40;99.90;;;;;;2071080;28;20454;-83
2023/07/28 00:43:14;;;;;;;3.37;1.93;;;15.40;99.90;;;;;;2065857;28;20301;-83
2023/07/28 00:44:17;;;;;;;2.87;1.73;;;15.40;99.90;;;;;;2077049;28;20427;-83
2023/07/28 00:45:17;;;;;;;2.67;2.07;;;15.40;99.90;;;;;;2080283;28;20666;-83
2023/07/28 00:46:18;;;;;;;2.20;1.83;;;15.40;99.90;;;;;;2071431;28;20526;-84
2023/07/28 00:47:19;;;;;;;3.03;2.10;;;15.40;99.90;;;;;;2069853;28;20798;-83
2023/07/28 00:48:20;;;;;;;2.00;1.80;;;15.40;99.90;;;;;;2077587;28;20345;-83
2023/07/28 00:49:21;;;;;;;2.63;1.90;;;15.30;99.90;;;;;;2074274;28;20237;-82
2023/07/28 00:50:22;;;;;;;2.50;2.10;;;15.50;99.90;;;;;;2065262;28;20474;-84
2023/07/28 00:51:23;;;;;;;2.30;2.10;;;15.50;99.90;;;;;;2066768;28;20245;-83
2023/07/28 00:52:24;;;;;;;2.03;1.83;;;15.40;99.90;;;;;;2071159;28;20229;-83
2023/07/28 00:53:25;;;;;;;2.27;2.07;;;15.50;99.90;;;;;;2068643;28;20474;-84
2023/07/28 00:54:26;;;;;;;2.03;1.83;;;15.50;99.90;;;;;;2064143;28;20232;-83
2023/07/28 00:55:27;;;;;;;2.57;1.97;;;15.50;99.90;;;;;;2061296;28;20604;-84
2023/07/28 00:56:27;;;;;;;2.20;2.00;;;15.50;99.90;;;;;;2069197;28;20729;-83
2023/07/28 00:57:28;;;;;;;3.47;2.20;;;15.50;99.90;;;;;;2069320;28;20225;-84
2023/07/28 00:58:30;;;;;;;2.20;1.77;;;15.50;99.90;;;;;;2067830;28;20261;-85
2023/07/28 00:59:31;;;;;;;2.90;2.38;;;15.60;99.90;;;;;;2065241;28;20245;-83
2023/07/28 01:00:32;;;;;;;2.57;2.00;;;15.50;99.90;;;;;;2062528;28;20236;-84
2023/07/28 01:01:32;;;;;;;2.73;2.10;;;15.50;99.90;;;;;;2068596;28;20371;-85
2023/07/28 01:02:33;;;;;;;3.10;1.93;;;15.50;99.90;;;;;;2060767;28;20683;-84
2023/07/28 01:03:34;;;;;;;2.67;2.10;;;15.50;99.90;;;;;;2061431;28;20289;-83
2023/07/28 01:04:34;;;;;;;2.53;2.30;;;15.40;99.90;;;;;;2071756;28;20225;-83
2023/07/28 01:05:53;;;;;;;4.37;1.90;;;15.40;99.90;;;;;;2072364;28;20267;-85
2023/07/28 01:07:10;;;;;;;2.30;2.03;;;15.40;99.90;;;;;;2079404;28;20741;-84
2023/07/28 01:08:49;;;;;;;2.25;2.00;;;15.30;99.90;;;;;;2077908;28;20212;-85
2023/07/28 01:10:03;;;;;;;2.35;1.92;;;15.30;99.90;;;;;;2074114;28;20315;-82
2023/07/28 01:11:04;;;;;;;2.10;1.90;;;15.40;99.90;;;;;;2070328;28;20209;-82
2023/07/28 01:12:09;;;;;;;2.37;2.10;;;15.40;99.90;;;;;;2060667;28;20178;-83
2023/07/28 01:13:10;;;;;;;2.90;2.38;;;15.50;99.90;;;;;;2062132;28;20495;-82
2023/07/28 01:14:10;;;;;;;2.60;2.40;;;15.40;99.90;;;;;;2068757;28;20225;-84
2023/07/28 01:15:11;;;;;;;3.07;2.10;;;15.50;99.90;;;;;;2064068;28;20592;-84
2023/07/28 01:16:12;;;;;;;2.33;2.00;;;15.40;99.90;;;;;;2072596;28;20260;-83
2023/07/28 01:17:12;;;;;;;2.70;1.80;;;15.40;99.90;;;;;;2061175;28;20201;-82
2023/07/28 01:18:15;;;;;;;2.67;2.03;;;15.30;99.90;;;;;;2064201;28;20633;-83
2023/07/28 01:19:18;;;;;;;3.63;2.17;;;15.20;99.90;;;;;;2072350;28;20209;-84
2023/07/28 01:20:19;;;;;;;2.80;1.98;;;15.20;99.90;;;;;;2070797;28;21062;-81
2023/07/28 01:21:25;;;;;;;2.30;2.08;;;15.20;99.90;;;;;;2078302;28;20232;-83
2023/07/28 01:22:50;;;;;;;3.17;2.40;;;15.20;99.90;;;;;;2078054;28;20348;-81
2023/07/28 01:24:20;;;;;;;5.03;2.35;;;15.20;99.90;;;;;;2071029;28;20236;-85
2023/07/28 01:25:57;;;;;;;3.85;2.00;;;15.20;99.90;;;;;;2071523;28;20239;-81
2023/07/28 01:26:58;;;;;;;2.53;2.33;;;15.20;99.90;;;;;;2078966;28;20648;-82
2023/07/28 01:28:00;;;;;;;2.73;2.20;;;15.10;99.90;;;;;;2072380;28;20194;-81
2023/07/28 01:29:03;;;;;;;2.60;2.35;;;15.10;99.90;;;;;;2064675;28;20191;-82
2023/07/28 01:30:05;;;;;;;2.63;2.03;;;14.90;99.90;;;;;;2072208;28;20173;-85
2023/07/28 01:31:07;;;;;;;2.63;2.03;;;14.80;99.90;;;;;;2055859;28;20183;-84
2023/07/28 01:32:10;;;;;;;2.20;2.00;;;14.80;99.90;;;;;;2052937;28;20214;-85
2023/07/28 01:33:11;;;;;;;3.17;2.08;;;14.90;99.90;;;;;;2056311;28;20182;-82
2023/07/28 01:34:12;;;;;;;2.63;2.13;;;14.90;99.90;;;;;;2060552;28;20178;-85
2023/07/28 01:35:12;;;;;;;3.53;2.23;;;14.80;99.90;;;;;;2063381;28;20202;-84
2023/07/28 01:36:13;;;;;;;2.20;2.00;;;14.90;99.90;;;;;;2071511;28;20197;-85
2023/07/28 01:37:14;;;;;;;3.00;2.40;;;14.70;99.90;;;;;;2056170;28;20843;-84
2023/07/28 01:38:16;;;;;;;2.17;2.00;;;14.70;99.90;;;;;;2064691;28;20205;-84
2023/07/28 01:39:16;;;;;;;2.53;2.17;;;14.70;99.90;;;;;;2063379;28;20241;-82
2023/07/28 01:40:18;;;;;;;3.30;2.37;;;14.60;99.90;;;;;;2061144;28;20278;-84
2023/07/28 01:41:18;;;;;;;2.72;2.10;;;14.70;99.90;;;;;;2067942;28;20280;-83
2023/07/28 01:42:19;;;;;;;3.57;2.40;;;14.80;99.90;;;;;;2069124;28;20282;-84
2023/07/28 01:43:20;;;;;;;2.93;2.20;;;14.90;99.90;;;;;;2063006;28;20238;-85
2023/07/28 01:44:21;;;;;;;2.30;2.10;;;14.90;99.90;;;;;;2066076;28;20237;-84
2023/07/28 01:45:21;;;;;;;3.33;2.10;;;14.90;99.90;;;;;;2068486;28;20234;-82
2023/07/28 01:46:22;;;;;;;2.50;2.20;;;14.90;99.90;;;;;;2068012;28;20235;-82
2023/07/28 01:47:25;;;;;;;3.00;2.20;;;14.80;99.90;;;;;;2074505;28;20238;-84
2023/07/28 01:48:26;;;;;;;2.85;2.05;;;14.80;99.90;;;;;;2076057;28;20244;-84
2023/07/28 01:49:27;;;;;;;2.40;2.20;;;14.80;99.90;;;;;;2072048;28;20260;-82
2023/07/28 01:50:27;;;;;;;3.03;2.30;;;14.90;99.90;;;;;;2061201;28;20236;-83
2023/07/28 01:51:28;;;;;;;2.73;2.53;;;14.80;99.90;;;;;;2062432;28;20540;-84
2023/07/28 01:52:29;;;;;;;3.20;2.23;;;14.90;99.90;;;;;;2068768;28;20233;-83
2023/07/28 01:53:29;;;;;;;3.13;2.53;;;14.80;99.90;;;;;;2071844;28;20725;-83
2023/07/28 01:54:30;;;;;;;2.77;2.13;;;14.80;99.90;;;;;;2071157;28;20288;-83
2023/07/28 01:55:31;;;;;;;2.90;2.40;;;15.00;99.90;;;;;;2054354;28;20234;-82
2023/07/28 01:56:32;;;;;;;2.70;2.27;;;15.00;99.90;;;;;;2057447;28;20262;-82
2023/07/28 01:57:33;;;;;;;2.50;2.00;;;15.00;99.90;;;;;;2067930;28;20257;-81
2023/07/28 01:58:34;;;;;;;2.03;1.83;;;15.10;99.90;;;;;;2077989;28;20276;-81
2023/07/28 01:59:34;;;;;;;3.03;2.30;;;15.10;99.90;;;;;;2058640;28;20243;-82
2023/07/28 02:00:35;;;;;;;3.77;2.30;;;15.10;99.90;;;;;;2068713;28;20233;-83
2023/07/28 02:01:36;;;;;;;2.40;2.20;;;15.00;99.90;;;;;;2067711;28;20248;-83
2023/07/28 02:02:36;;;;;;;2.40;2.20;;;14.90;99.90;;;;;;2065307;28;20313;-83
2023/07/28 02:03:37;;;;;;;2.30;2.10;;;14.80;99.90;;;;;;2060503;28;20297;-82
2023/07/28 02:04:38;;;;;;;2.80;2.23;;;14.80;99.90;;;;;;2063789;28;20253;-82
2023/07/28 02:05:38;;;;;;;2.10;1.90;;;14.90;99.90;;;;;;2067835;28;20309;-83
2023/07/28 02:06:39;;;;;;;2.87;2.20;;;14.80;99.90;;;;;;2063579;28;20280;-82
2023/07/28 02:07:40;;;;;;;2.27;2.07;;;14.90;99.90;;;;;;2063511;28;20635;-83
2023/07/28 02:08:40;;;;;;;2.50;2.30;;;14.90;99.90;;;;;;2059090;28;20278;-83
2023/07/28 02:09:41;;;;;;;2.27;2.00;;;14.90;99.90;;;;;;2048334;28;20283;-83
2023/07/28 02:10:44;;;;;;;2.30;1.83;;;14.90;99.90;;;;;;2056568;28;20639;-84
2023/07/28 02:11:45;;;;;;;3.25;1.98;;;14.90;99.90;;;;;;2063387;28;20242;-83
2023/07/28 02:12:46;;;;;;;2.20;2.00;;;15.00;99.90;;;;;;2062021;28;20225;-83
2023/07/28 02:13:47;;;;;;;3.70;2.17;;;15.20;99.90;;;;;;2070534;28;20726;-84
2023/07/28 02:14:48;;;;;;;2.80;2.17;;;15.20;99.90;;;;;;2069807;28;20236;-82
2023/07/28 02:15:48;;;;;;;3.13;2.50;;;15.20;99.90;;;;;;2072621;28;20562;-84
2023/07/28 02:16:49;;;;;;;2.20;2.00;;;15.30;99.90;;;;;;2062075;28;20325;-83
2023/07/28 02:17:50;;;;;;;2.30;2.03;;;15.30;99.90;;;;;;2063869;28;20720;-82
2023/07/28 02:18:50;;;;;;;5.60;2.17;;;15.30;99.90;;;;;;2064108;28;20329;-82
2023/07/28 02:19:51;;;;;;;2.30;2.10;;;15.40;99.90;;;;;;2053791;28;20261;-81
2023/07/28 02:20:52;;;;;;;4.07;2.10;;;15.20;99.90;;;;;;2054223;28;20252;-82
2023/07/28 02:21:52;;;;;;;4.47;2.10;;;15.10;99.90;;;;;;2063460;28;20333;-82
2023/07/28 02:22:53;;;;;;;2.90;2.30;;;15.10;99.90;;;;;;2060907;28;20801;-82
2023/07/28 02:23:54;;;;;;;2.73;1.90;;;15.10;99.90;;;;;;2068924;28;20314;-82
2023/07/28 02:24:55;;;;;;;2.37;2.17;;;15.20;99.90;;;;;;2081997;28;20231;-82
2023/07/28 02:25:55;;;;;;;5.23;2.23;;;15.30;99.90;;;;;;2075835;28;20698;-80
2023/07/28 02:26:56;;;;;;;2.23;2.00;;;15.40;99.90;;;;;;2069821;28;20293;-82
2023/07/28 02:27:57;;;;;;;2.37;1.87;;;15.70;99.90;;;;;;2078664;28;20236;-83
2023/07/28 02:28:58;;;;;;;2.00;1.80;;;15.70;99.90;;;;;;2065180;28;20316;-82
2023/07/28 02:29:58;;;;;;;3.67;2.30;;;15.70;99.90;;;;;;2077103;28;20496;-82
2023/07/28 02:30:59;;;;;;;2.23;1.90;;;15.70;99.90;;;;;;2073138;28;20196;-81
2023/07/28 02:32:00;;;;;;;2.87;2.10;;;15.70;99.90;;;;;;2064723;28;20194;-82
2023/07/28 02:33:00;;;;;;;3.43;2.00;;;15.80;99.90;;;;;;2066501;28;20187;-83
2023/07/28 02:34:01;;;;;;;2.30;2.10;;;15.80;99.90;;;;;;2059752;28;20187;-82
2023/07/28 02:35:02;;;;;;;2.10;1.90;;;15.80;99.90;;;;;;2067956;28;20594;-82
2023/07/28 02:36:04;;;;;;;2.10;1.77;;;15.80;99.90;;;;;;2083732;28;20180;-82
2023/07/28 02:37:05;;;;;;;2.00;1.80;;;15.90;99.90;;;;;;2076077;28;20267;-83
2023/07/28 02:38:06;;;;;;;2.00;1.80;;;15.90;99.90;;;;;;2060350;28;20198;-83
2023/07/28 02:39:06;;;;;;;1.73;1.43;;;15.90;99.90;;;;;;2063545;28;20190;-84
2023/07/28 02:40:08;;;;;;;3.70;2.10;;;15.80;99.90;;;;;;2080090;28;20650;-84
2023/07/28 02:41:10;;;;;;;1.87;1.77;;;15.70;99.90;;;;;;2076343;28;20188;-84
2023/07/28 02:42:12;;;;;;;2.20;2.00;;;15.70;99.90;;;;;;2073012;28;20427;-84
2023/07/28 02:43:13;;;;;;;2.67;1.80;;;15.70;99.90;;;;;;2068009;28;20424;-85
2023/07/28 02:44:13;;;;;;;1.97;1.83;;;15.70;99.90;;;;;;2064477;28;20466;-81
2023/07/28 02:45:14;;;;;;;1.77;1.67;;;15.70;99.90;;;;;;2071982;28;20189;-84
2023/07/28 02:46:15;;;;;;;2.97;1.90;;;15.60;99.90;;;;;;2060983;28;20187;-83
2023/07/28 02:47:15;;;;;;;2.37;1.80;;;15.70;99.90;;;;;;2052147;28;20188;-83
2023/07/28 02:48:16;;;;;;;4.60;1.97;;;15.70;99.90;;;;;;2054887;28;20179;-82
2023/07/28 02:49:17;;;;;;;2.03;1.83;;;15.80;99.90;;;;;;2069966;28;20174;-84
2023/07/28 02:50:17;;;;;;;3.27;2.10;;;15.70;99.90;;;;;;2076330;28;20225;-83
2023/07/28 02:51:18;;;;;;;2.30;2.10;;;15.70;99.90;;;;;;2075838;28;20252;-85
2023/07/28 02:52:19;;;;;;;3.03;2.13;;;15.60;99.90;;;;;;2080710;28;20225;-83
2023/07/28 02:53:20;;;;;;;2.20;1.80;;;15.40;99.90;;;;;;2069891;28;20296;-84
2023/07/28 02:54:23;;;;;;;2.40;2.07;;;15.30;99.90;;;;;;2073741;28;20233;-83
2023/07/28 02:55:24;;;;;;;2.00;1.80;;;15.10;99.90;;;;;;2076032;28;20225;-82
2023/07/28 02:56:24;;;;;;;2.03;1.83;;;15.10;99.90;;;;;;2070948;28;20221;-83
2023/07/28 02:57:25;;;;;;;2.10;1.90;;;15.30;99.90;;;;;;2065283;28;20365;-83
2023/07/28 02:58:26;;;;;;;2.43;2.23;;;15.40;99.90;;;;;;2054763;28;20293;-82
2023/07/28 02:59:26;;;;;;;3.03;2.10;;;15.50;99.90;;;;;;2055369;28;20246;-84
2023/07/28 03:00:27;;;;;;;2.20;1.90;;;15.60;99.90;;;;;;2067133;28;20228;-83
2023/07/28 03:01:32;;;;;;;2.43;1.90;;;15.70;99.90;;;;;;2076075;28;20239;-84
2023/07/28 03:02:33;;;;;;;3.03;2.10;;;15.90;99.90;;;;;;2077435;28;20236;-83
2023/07/28 03:03:34;;;;;;;2.73;1.80;;;16.00;99.90;;;;;;2060294;28;20484;-83
2023/07/28 03:04:34;;;;;;;2.43;2.00;;;16.10;99.90;;;;;;2068107;28;20281;-83
2023/07/28 03:05:35;;;;;;;2.50;1.83;;;16.20;99.90;;;;;;2062487;28;20714;-84
2023/07/28 03:06:36;;;;;;;2.17;1.97;;;16.40;99.90;;;;;;2063996;28;20332;-82
2023/07/28 03:07:36;;;;;;;2.63;1.93;;;16.40;99.90;;;;;;2060383;28;20848;-83
2023/07/28 03:08:37;;;;;;;3.27;2.37;;;16.50;99.90;;;;;;2068197;28;20230;-83
2023/07/28 03:09:38;;;;;;;4.10;2.03;;;16.50;99.90;;;;;;2059750;28;20672;-83
2023/07/28 03:10:38;;;;;;;4.50;2.13;;;16.50;99.90;;;;;;2059483;28;20333;-83
2023/07/28 03:11:39;;;;;;;2.43;2.20;;;16.40;99.90;;;;;;2062904;28;20316;-84
2023/07/28 03:12:40;;;;;;;3.73;2.00;;;16.30;99.90;;;;;;2063501;28;20233;-83
2023/07/28 03:13:40;;;;;;;2.33;2.07;;;16.30;99.90;;;;;;2063579;28;20563;-84
2023/07/28 03:14:41;;;;;;;2.30;2.10;;;16.30;99.90;;;;;;2063917;28;20279;-84
2023/07/28 03:15:42;;;;;;;2.37;1.87;;;16.20;99.90;;;;;;2068469;28;20229;-84
2023/07/28 03:16:42;;;;;;;2.23;2.03;;;16.00;99.90;;;;;;2078828;28;20686;-84
2023/07/28 03:17:43;;;;;;;2.20;2.00;;;16.00;99.90;;;;;;2062938;28;20243;-83
2023/07/28 03:18:44;;;;;;;2.30;2.10;;;16.00;99.90;;;;;;2060874;28;20249;-84
2023/07/28 03:19:44;;;;;;;3.20;2.13;;;16.10;99.90;;;;;;2070339;28;20264;-83
2023/07/28 03:20:47;;;;;;;2.77;2.13;;;16.10;99.90;;;;;;2062492;28;20230;-83
2023/07/28 03:21:47;;;;;;;6.13;2.10;;;16.00;99.90;;;;;;2060833;28;20254;-84
2023/07/28 03:22:48;;;;;;;2.60;1.80;;;15.90;99.90;;;;;;2072485;28;20559;-81
2023/07/28 03:23:49;;;;;;;2.10;1.90;;;15.90;99.90;;;;;;2069353;28;20760;-82
2023/07/28 03:24:49;;;;;;;2.97;1.87;;;16.00;99.90;;;;;;2062980;28;20353;-81
2023/07/28 03:25:50;;;;;;;3.33;2.10;;;16.10;99.90;;;;;;2071576;28;20242;-82
2023/07/28 03:26:51;;;;;;;2.77;2.17;;;16.20;99.90;;;;;;2077138;28;20249;-82
2023/07/28 03:27:52;;;;;;;2.73;2.03;;;16.00;99.90;;;;;;2071012;28;20245;-84
2023/07/28 03:28:53;;;;;;;2.17;1.93;;;15.90;99.90;;;;;;2061382;28;20234;-84
2023/07/28 03:29:54;;;;;;;2.20;2.00;;;15.90;99.90;;;;;;2058200;28;20491;-84
2023/07/28 03:30:54;;;;;;;1.93;1.77;;;15.90;99.90;;;;;;2068177;28;20229;-83
2023/07/28 03:31:55;;;;;;;3.80;2.23;;;15.80;99.90;;;;;;2070582;28;20233;-83
2023/07/28 03:32:56;;;;;;;4.57;2.27;;;15.80;99.90;;;;;;2072002;28;20237;-83
2023/07/28 03:33:56;;;;;;;1.97;1.77;;;15.70;99.90;;;;;;2060539;28;20237;-83
2023/07/28 03:34:57;;;;;;;2.10;1.90;;;15.70;99.90;;;;;;2055817;28;20231;-84
2023/07/28 03:35:58;;;;;;;2.13;1.93;;;15.80;99.90;;;;;;2063672;28;20393;-81
2023/07/28 03:36:58;;;;;;;2.37;2.17;;;15.80;99.90;;;;;;2070994;28;20261;-82
2023/07/28 03:37:59;;;;;;;2.27;2.07;;;15.80;99.90;;;;;;2060030;28;20210;-82
2023/07/28 03:39:00;;;;;;;3.83;2.00;;;15.90;99.90;;;;;;2058282;28;20197;-84
2023/07/28 03:40:00;;;;;;;2.10;1.90;;;15.90;99.90;;;;;;2069269;28;20229;-82
2023/07/28 03:41:01;;;;;;;2.80;2.30;;;15.80;99.90;;;;;;2071019;28;20193;-82
2023/07/28 03:42:02;;;;;;;2.17;1.80;;;15.80;99.90;;;;;;2075902;28;20189;-83
2023/07/28 03:43:03;;;;;;;1.90;1.80;;;15.80;99.90;;;;;;2076348;28;20188;-82
2023/07/28 03:44:04;;;;;;;2.47;2.27;;;15.70;99.90;;;;;;2059072;28;20433;-83
2023/07/28 03:45:05;;;;;;;2.57;2.10;;;15.60;99.90;;;;;;2060086;28;20190;-83
2023/07/28 03:46:06;;;;;;;2.87;2.30;;;15.60;99.90;;;;;;2074530;28;20305;-83
2023/07/28 03:47:08;;;;;;;2.20;1.93;;;15.60;99.90;;;;;;2068948;28;20519;-82
2023/07/28 03:48:08;;;;;;;2.13;1.92;;;15.70;99.90;;;;;;2071213;28;20184;-84
2023/07/28 03:49:09;;;;;;;3.40;2.30;;;15.70;99.90;;;;;;2070978;28;20600;-83
2023/07/28 03:50:09;;;;;;;2.87;2.10;;;15.70;99.90;;;;;;2074953;28;20190;-83
2023/07/28 03:51:10;;;;;;;1.90;1.80;;;15.70;99.90;;;;;;2076324;28;20209;-84
2023/07/28 03:52:11;;;;;;;2.27;2.07;;;15.70;99.90;;;;;;2072689;28;20204;-81
2023/07/28 03:53:11;;;;;;;2.27;2.03;;;15.60;99.90;;;;;;2064570;28;20229;-82
2023/07/28 03:54:12;;;;;;;2.40;2.20;;;15.50;99.90;;;;;;2067217;28;20838;-84
2023/07/28 03:55:13;;;;;;;2.50;2.30;;;15.50;99.90;;;;;;2079934;28;20269;-82
2023/07/28 03:56:13;;;;;;;2.30;2.10;;;15.50;99.90;;;;;;2087465;28;20188;-82
2023/07/28 03:57:14;;;;;;;3.03;2.43;;;15.50;99.90;;;;;;2068914;28;20181;-83
2023/07/28 03:58:15;;;;;;;2.43;2.10;;;15.50;99.90;;;;;;2061067;28;20229;-82
2023/07/28 03:59:15;;;;;;;2.40;1.87;;;15.50;99.90;;;;;;2060615;28;20295;-83
2023/07/28 04:00:16;;;;;;;2.97;2.37;;;15.40;99.90;;;;;;2063668;28;20214;-84
2023/07/28 04:01:18;;;;;;;3.23;2.40;;;15.30;99.90;;;;;;2063855;28;20637;-83
2023/07/28 04:02:18;;;;;;;2.70;2.10;;;15.10;99.90;;;;;;2056782;28;20247;-84
2023/07/28 04:03:20;;;;;;;2.60;2.00;;;15.10;99.90;;;;;;2064931;28;20226;-83
2023/07/28 04:04:20;;;;;;;3.38;2.15;;;15.10;99.90;;;;;;2069166;28;20246;-84
2023/07/28 04:05:21;;;;;;;2.63;2.43;;;15.10;99.90;;;;;;2073300;28;20229;-84
2023/07/28 04:06:47;;;;;;;4.10;2.50;;;15.10;99.90;;;;;;2065583;28;20238;-83
2023/07/28 04:07:47;;;;;;;2.38;2.10;;;15.10;99.90;;;;;;2068800;28;20614;-83
2023/07/28 04:08:48;;;;;;;2.57;2.07;;;15.10;99.90;;;;;;2070155;28;20340;-84
2023/07/28 04:09:49;;;;;;;2.73;2.30;;;15.10;99.90;;;;;;2070221;28;20264;-83
2023/07/28 04:10:49;;;;;;;3.37;2.07;;;15.20;99.90;;;;;;2062085;28;20225;-84
2023/07/28 04:11:50;;;;;;;4.53;2.20;;;15.20;99.90;;;;;;2051374;28;20234;-83
2023/07/28 04:12:51;;;;;;;3.93;2.27;;;15.30;99.90;;;;;;2053936;28;20235;-84
2023/07/28 04:13:51;;;;;;;2.53;2.20;;;15.10;99.90;;;;;;2061599;28;20666;-82
2023/07/28 04:14:52;;;;;;;2.87;2.43;;;15.20;99.90;;;;;;2074620;28;20225;-83
2023/07/28 04:15:53;;;;;;;2.30;2.10;;;15.20;99.90;;;;;;2062752;28;20237;-83
2023/07/28 04:16:54;;;;;;;2.60;2.40;;;15.20;99.90;;;;;;2065847;28;20281;-82
2023/07/28 04:17:55;;;;;;;3.95;2.35;;;15.20;99.90;;;;;;2062268;28;20238;-82
2023/07/28 04:18:56;;;;;;;2.83;2.50;;;15.10;99.90;;;;;;2053922;28;20354;-82
2023/07/28 04:19:57;;;;;;;3.22;2.28;;;15.00;99.90;;;;;;2062181;28;20292;-82
2023/07/28 04:20:58;;;;;;;3.77;3.10;;;15.00;99.90;;;;;;2077119;28;20281;-82
2023/07/28 04:22:00;;;;;;;2.50;2.30;;;15.00;99.90;;;;;;2067176;28;20713;-82
2023/07/28 04:23:00;;;;;;;2.90;2.60;;;14.90;99.90;;;;;;2057748;28;20211;-83
2023/07/28 04:24:01;;;;;;;2.60;2.40;;;14.90;99.90;;;;;;2065290;28;20213;-83
2023/07/28 04:25:02;;;;;;;4.17;2.70;;;14.80;99.90;;;;;;2059575;28;20207;-83
2023/07/28 04:26:02;;;;;;;2.73;2.53;;;14.80;99.90;;;;;;2066307;28;20201;-84
2023/07/28 04:27:03;;;;;;;2.90;2.40;;;14.80;99.90;;;;;;2072615;28;20246;-83
2023/07/28 04:28:04;;;;;;;3.47;2.47;;;14.80;99.90;;;;;;2070519;28;20221;-84
2023/07/28 04:29:05;;;;;;;2.87;2.43;;;14.90;99.90;;;;;;2057322;28;20183;-83
2023/07/28 04:30:06;;;;;;;4.80;2.77;;;14.80;99.90;;;;;;2068774;28;20197;-83
2023/07/28 04:31:07;;;;;;;4.10;2.90;;;14.80;99.90;;;;;;2085518;28;20422;-84
2023/07/28 04:32:08;;;;;;;3.97;2.53;;;14.90;99.90;;;;;;2064572;28;20186;-83
2023/07/28 04:33:08;;;;;;;3.27;2.67;;;15.00;99.90;;;;;;2068832;28;20195;-84
2023/07/28 04:34:09;;;;;;;2.30;2.10;;;15.10;99.90;;;;;;2077126;28;20213;-83
2023/07/28 04:35:10;;;;;;;2.57;2.13;;;15.20;99.90;;;;;;2073125;28;20193;-85
2023/07/28 04:36:10;;;;;;;3.07;2.53;;;15.30;99.90;;;;;;2073265;28;20182;-84
2023/07/28 04:37:11;;;;;;;3.50;2.80;;;15.30;99.90;;;;;;2073449;28;20185;-85
2023/07/28 04:38:12;;;;;;;4.37;2.60;;;15.30;99.90;;;;;;2067430;28;20268;-84
2023/07/28 04:39:12;;;;;;;3.40;2.40;;;15.40;99.90;;;;;;2069262;28;20185;-83
2023/07/28 04:40:14;;;;;;;2.60;2.40;;;15.40;99.90;;;;;;2077737;28;20232;-84
2023/07/28 04:41:15;;;;;;;3.83;2.50;;;15.40;99.90;;;;;;2065021;28;20713;-83
2023/07/28 04:42:16;;;;;;;3.13;2.50;;;15.50;99.90;;;;;;2061801;28;20186;-82
2023/07/28 04:43:16;;;;;;;3.60;2.20;;;15.60;99.90;;;;;;2065323;28;20284;-84
2023/07/28 04:44:18;;;;;;;3.00;2.00;;;15.60;99.90;;;;;;2065646;28;20190;-85
2023/07/28 04:45:18;;;;;;;3.67;2.28;;;15.70;99.90;;;;;;2073175;28;20244;-84
2023/07/28 04:46:19;;;;;;;3.83;2.23;;;15.60;99.90;;;;;;2062471;28;20300;-84
2023/07/28 04:47:20;;;;;;;2.27;2.07;;;15.70;99.90;;;;;;2057532;28;20242;-82
2023/07/28 04:48:21;;;;;;;2.50;2.30;;;15.70;99.90;;;;;;2064355;28;20230;-82
2023/07/28 04:49:22;;;;;;;2.83;2.53;;;15.70;99.90;;;;;;2065082;28;20241;-83
2023/07/28 04:50:22;;;;;;;3.27;2.73;;;15.70;99.90;;;;;;2056616;28;20807;-84
2023/07/28 04:51:23;;;;;;;3.37;2.50;;;15.80;99.90;;;;;;2062709;28;20226;-84
2023/07/28 04:52:24;;;;;;;3.23;2.47;;;15.70;99.90;;;;;;2061223;28;20707;-83
2023/07/28 04:53:24;;;;;;;4.03;2.90;;;15.70;99.90;;;;;;2060329;28;20232;-83
2023/07/28 04:54:25;;;;;;;3.27;2.50;;;15.60;99.90;;;;;;2070858;28;20632;-82
2023/07/28 04:55:26;;;;;;;2.93;2.50;;;15.60;99.90;;;;;;2071616;28;20232;-82
2023/07/28 04:56:27;;;;;;;3.42;3.13;;;15.60;99.90;;;;;;2076689;28;20686;-82
2023/07/28 04:57:28;;;;;;;2.53;2.30;;;15.60;99.90;;;;;;2075990;28;20224;-82
2023/07/28 04:58:29;;;;;;;3.57;3.00;;;15.60;99.90;;;;;;2068600;28;20284;-83
2023/07/28 04:59:29;;;;;;;3.53;2.47;;;15.70;99.90;;;;;;2061038;28;20261;-83
2023/07/28 05:00:30;;;;;;;4.47;2.53;;;15.80;99.90;;;;;;2059837;28;20244;-84
2023/07/28 05:01:31;;;;;;;3.13;2.40;;;15.80;99.90;;;;;;2076193;28;20646;-83
2023/07/28 05:02:31;;;;;;;3.43;2.53;;;15.80;99.90;;;;;;2079322;28;20292;-82
2023/07/28 05:03:32;;;;;;;4.07;2.57;;;15.90;99.90;;;;;;2072218;28;20341;-83
2023/07/28 05:04:33;;;;;;;2.93;2.50;;;16.00;99.90;;;;;;2064127;28;20288;-84
2023/07/28 05:05:33;;;;;;;2.40;2.20;;;16.00;99.90;;;;;;2068311;28;20238;-84
2023/07/28 05:06:34;;;;;;;2.40;2.03;;;16.00;99.90;;;;;;2068366;28;20229;-82
2023/07/28 05:07:35;;;;;;;2.47;2.27;;;16.10;99.90;;;;;;2072306;28;20276;-83
2023/07/28 05:08:36;;;;;;;3.60;2.43;;;16.30;99.90;;;;;;2063987;28;20270;-84
2023/07/28 05:09:37;;;;;;;4.50;2.37;;;16.30;99.90;;;;;;2064360;28;20233;-83
2023/07/28 05:10:38;;;;;;;2.33;2.00;;;16.40;99.90;;;;;;2061961;28;20467;-83
2023/07/28 05:11:39;;;;;;;2.90;2.60;;;16.40;99.90;;;;;;2061759;28;21087;-84
2023/07/28 05:12:39;;;;;;;2.27;1.90;;;16.60;99.90;;;;;;2055180;28;20235;-82
2023/07/28 05:13:40;;;;;;;2.67;2.17;;;16.80;99.90;;;;;;2064527;28;20596;-82
2023/07/28 05:14:41;;;;;;;3.10;1.93;;;16.80;99.90;;;;;;2073546;28;20323;-82
2023/07/28 05:15:42;;;;;;;2.13;1.93;;;16.90;99.90;;;;;;2072360;28;20221;-83
2023/07/28 05:16:43;;;;;;;3.07;1.93;;;17.00;99.90;;;;;;2072212;28;20459;-85
2023/07/28 05:17:44;;;;;;;2.70;1.90;;;16.90;99.90;;;;;;2080570;28;20224;-84
2023/07/28 05:18:44;;;;;;;2.50;2.13;;;17.10;99.90;;;;;;2077560;28;20332;-84
2023/07/28 05:19:45;;;;;;;5.33;2.00;;;17.20;99.90;;;;;;2089372;28;20238;-83
2023/07/28 05:20:46;;;;;;;2.70;2.07;;;17.30;99.90;;;;;;2073461;28;20275;-83